createdAt,value
2018-08-18T00:00:16.600Z,2.10
2018-08-18T00:02:45.150Z,2.60
2018-08-18T00:05:14.552Z,2.50
2018-08-18T00:07:43.158Z,2.50
2018-08-18T00:10:13.722Z,2.40
2018-08-18T00:12:42.169Z,2.57
2018-08-18T00:15:10.752Z,2.30
2018-08-18T00:17:39.938Z,2.73
2018-08-18T00:20:10.792Z,2.30
2018-08-18T00:22:39.364Z,2.23
2018-08-18T00:25:07.848Z,2.40
2018-08-18T00:27:36.378Z,2.40
2018-08-18T00:30:11.684Z,2.50
2018-08-18T00:32:40.242Z,2.50
2018-08-18T00:35:08.954Z,2.00
2018-08-18T00:37:37.464Z,2.30
2018-08-18T00:40:07.560Z,2.40
2018-08-18T00:42:36.148Z,2.20
2018-08-18T00:45:05.921Z,2.20
2018-08-18T00:47:34.407Z,2.17
2018-08-18T00:50:03.020Z,2.53
2018-08-18T00:52:31.578Z,1.90
2018-08-18T00:55:00.150Z,2.10
2018-08-18T00:57:31.238Z,2.20
2018-08-18T01:00:00.232Z,1.87
2018-08-18T01:02:29.197Z,2.33
2018-08-18T01:04:59.111Z,2.33
2018-08-18T01:07:29.049Z,2.30
2018-08-18T01:09:57.933Z,2.57
2018-08-18T01:12:27.054Z,2.60
2018-08-18T01:14:56.310Z,2.87
2018-08-18T01:17:25.029Z,2.33
2018-08-18T01:19:55.002Z,2.60
2018-08-18T01:22:23.520Z,2.63
2018-08-18T01:24:52.708Z,2.73
2018-08-18T01:27:21.486Z,2.20
2018-08-18T01:29:55.155Z,2.47
2018-08-18T01:32:23.841Z,2.57
2018-08-18T01:34:52.981Z,2.20
2018-08-18T01:37:21.726Z,2.23
2018-08-18T01:39:51.234Z,2.53
2018-08-18T01:42:19.755Z,2.27
2018-08-18T01:44:48.272Z,2.50
2018-08-18T01:47:17.551Z,2.63
2018-08-18T01:49:45.977Z,2.53
2018-08-18T01:52:19.693Z,2.90
2018-08-18T01:54:48.136Z,2.70
2018-08-18T01:57:18.840Z,2.70
2018-08-18T01:59:47.835Z,2.43
2018-08-18T02:02:26.539Z,2.83
2018-08-18T02:05:00.187Z,2.70
2018-08-18T02:07:33.556Z,2.63
2018-08-18T02:10:02.145Z,2.90
2018-08-18T02:12:30.726Z,2.87
2018-08-18T02:14:59.980Z,2.60
2018-08-18T02:17:31.425Z,2.73
2018-08-18T02:20:00.209Z,2.97
2018-08-18T02:22:29.487Z,2.90
2018-08-18T02:24:57.929Z,2.80
2018-08-18T02:27:26.441Z,2.70
2018-08-18T02:30:15.943Z,2.43
2018-08-18T02:32:44.479Z,2.87
2018-08-18T02:35:12.983Z,2.90
2018-08-18T02:37:41.583Z,3.03
2018-08-18T02:40:12.515Z,3.10
2018-08-18T02:42:41.320Z,2.63
2018-08-18T02:45:10.889Z,2.90
2018-08-18T02:47:39.451Z,2.90
2018-08-18T02:50:09.075Z,3.00
2018-08-18T02:52:37.769Z,2.57
2018-08-18T02:55:08.693Z,2.77
2018-08-18T02:57:38.441Z,2.83
2018-08-18T03:00:08.982Z,2.93
2018-08-18T03:02:37.555Z,2.70
2018-08-18T03:05:06.021Z,2.70
2018-08-18T03:07:40.384Z,2.67
2018-08-18T03:10:14.817Z,2.70
2018-08-18T03:12:44.991Z,2.53
2018-08-18T03:15:28.697Z,2.80
2018-08-18T03:17:57.152Z,2.90
2018-08-18T03:20:25.582Z,2.50
2018-08-18T03:22:54.043Z,2.40
2018-08-18T03:25:32.561Z,2.70
2018-08-18T03:28:01.110Z,2.50
2018-08-18T03:30:29.532Z,2.77
2018-08-18T03:32:57.970Z,3.00
2018-08-18T03:35:26.437Z,3.17
2018-08-18T03:37:54.903Z,2.90
2018-08-18T03:40:23.408Z,3.10
2018-08-18T03:42:51.931Z,3.13
2018-08-18T03:45:20.391Z,3.20
2018-08-18T03:47:49.025Z,3.00
2018-08-18T03:50:17.582Z,3.20
2018-08-18T03:52:46.018Z,3.43
2018-08-18T03:55:14.535Z,2.80
2018-08-18T03:57:48.006Z,2.87
2018-08-18T04:00:17.613Z,3.10
2018-08-18T04:02:46.261Z,3.07
2018-08-18T04:05:14.716Z,3.00
2018-08-18T04:07:47.930Z,3.10
2018-08-18T04:10:18.185Z,3.93
2018-08-18T04:12:46.856Z,3.53
2018-08-18T04:15:15.360Z,2.90
2018-08-18T04:17:43.802Z,2.70
2018-08-18T04:20:12.296Z,3.10
2018-08-18T04:22:40.885Z,3.07
2018-08-18T04:25:09.413Z,3.30
2018-08-18T04:27:41.489Z,3.23
2018-08-18T04:30:15.176Z,3.50
2018-08-18T04:32:53.196Z,3.50
2018-08-18T04:35:22.790Z,3.67
2018-08-18T04:37:52.261Z,3.60
2018-08-18T04:40:21.581Z,3.53
2018-08-18T04:42:50.163Z,3.70
2018-08-18T04:45:20.073Z,4.00
2018-08-18T04:47:48.536Z,3.50
2018-08-18T04:50:16.988Z,3.43
2018-08-18T04:52:45.546Z,4.03
2018-08-18T04:55:14.911Z,16.73
2018-08-18T04:57:43.549Z,8.90
2018-08-18T05:00:14.015Z,4.90
2018-08-18T05:02:46.737Z,3.80
2018-08-18T05:05:15.827Z,4.00
2018-08-18T05:07:48.196Z,4.27
2018-08-18T05:10:18.339Z,3.87
2018-08-18T05:12:46.796Z,3.60
2018-08-18T05:15:16.312Z,3.90
2018-08-18T05:17:44.746Z,4.07
2018-08-18T05:20:18.099Z,4.10
2018-08-18T05:22:46.608Z,3.47
2018-08-18T05:25:15.549Z,3.63
2018-08-18T05:27:44.020Z,3.70
2018-08-18T05:30:12.577Z,4.03
2018-08-18T05:32:41.073Z,3.93
2018-08-18T05:35:10.113Z,3.63
2018-08-18T05:37:38.583Z,4.10
2018-08-18T05:40:07.565Z,4.00
2018-08-18T05:42:36.263Z,4.23
2018-08-18T05:45:35.961Z,4.30
2018-08-18T05:48:04.477Z,4.10
2018-08-18T05:50:32.919Z,3.60
2018-08-18T05:53:26.312Z,3.50
2018-08-18T05:55:55.179Z,3.70
2018-08-18T05:58:23.743Z,3.83
2018-08-18T06:01:23.195Z,3.57
2018-08-18T06:03:57.213Z,3.60
2018-08-18T06:06:25.984Z,3.43
2018-08-18T06:08:54.865Z,3.70
2018-08-18T06:11:23.411Z,3.70
2018-08-18T06:13:51.876Z,3.03
2018-08-18T06:16:20.316Z,3.87
2018-08-18T06:18:48.785Z,3.20
2018-08-18T06:21:17.256Z,3.30
2018-08-18T06:23:46.824Z,3.07
2018-08-18T06:26:16.182Z,2.80
2018-08-18T06:28:44.638Z,2.93
2018-08-18T06:31:13.115Z,2.87
2018-08-18T06:33:41.566Z,2.80
2018-08-18T06:36:10.112Z,2.87
2018-08-18T06:38:38.705Z,3.27
2018-08-18T06:41:07.550Z,2.93
2018-08-18T06:43:35.976Z,2.93
2018-08-18T06:46:04.524Z,3.17
2018-08-18T06:48:35.132Z,3.07
2018-08-18T06:51:03.970Z,3.07
2018-08-18T06:53:37.770Z,2.90
2018-08-18T06:56:06.795Z,3.33
2018-08-18T06:58:35.561Z,3.30
2018-08-18T07:01:04.096Z,3.13
2018-08-18T07:03:37.362Z,3.20
2018-08-18T07:06:06.598Z,2.90
2018-08-18T07:08:40.914Z,3.07
2018-08-18T07:11:10.084Z,2.60
2018-08-18T07:13:38.766Z,2.53
2018-08-18T07:16:07.785Z,3.07
2018-08-18T07:18:36.324Z,3.23
2018-08-18T07:21:04.789Z,2.67
2018-08-18T07:23:33.232Z,2.87
2018-08-18T07:26:02.596Z,2.30
2018-08-18T07:28:31.165Z,2.40
2018-08-18T07:30:59.778Z,2.63
2018-08-18T07:33:28.356Z,2.30
2018-08-18T07:35:56.910Z,2.33
2018-08-18T07:38:25.508Z,2.37
2018-08-18T07:40:55.027Z,2.67
2018-08-18T07:43:29.562Z,2.87
2018-08-18T07:45:59.660Z,2.93
2018-08-18T07:48:28.118Z,2.60
2018-08-18T07:50:56.785Z,2.60
2018-08-18T07:53:25.307Z,2.63
2018-08-18T07:55:53.760Z,2.60
2018-08-18T07:58:23.513Z,2.50
2018-08-18T08:00:52.092Z,2.30
2018-08-18T08:03:21.287Z,2.20
2018-08-18T08:05:49.820Z,2.30
2018-08-18T08:08:18.446Z,2.17
2018-08-18T08:10:46.899Z,2.43
2018-08-18T08:13:15.939Z,2.93
2018-08-18T08:15:44.744Z,2.27
2018-08-18T08:18:14.641Z,2.00
2018-08-18T08:20:43.135Z,2.30
2018-08-18T08:23:11.682Z,2.00
2018-08-18T08:25:40.160Z,2.17
2018-08-18T08:28:08.691Z,2.10
2018-08-18T08:30:37.120Z,1.93
2018-08-18T08:33:05.782Z,1.97
2018-08-18T08:35:37.475Z,2.00
2018-08-18T08:38:05.998Z,2.20
2018-08-18T08:40:34.676Z,2.07
2018-08-18T08:43:03.600Z,2.20
2018-08-18T08:45:32.257Z,2.47
2018-08-18T08:48:00.826Z,2.40
2018-08-18T08:50:29.288Z,2.17
2018-08-18T08:52:58.315Z,2.20
2018-08-18T08:55:28.022Z,2.30
2018-08-18T08:57:56.633Z,2.10
2018-08-18T09:00:25.118Z,2.30
2018-08-18T09:02:54.515Z,2.42
2018-08-18T09:05:23.077Z,2.23
2018-08-18T09:07:51.533Z,2.20
2018-08-18T09:10:20.109Z,2.23
2018-08-18T09:12:48.625Z,2.10
2018-08-18T09:15:18.029Z,2.23
2018-08-18T09:17:46.539Z,2.53
2018-08-18T09:20:17.763Z,2.50
2018-08-18T09:22:53.263Z,2.23
2018-08-18T09:25:21.972Z,2.40
2018-08-18T09:27:53.530Z,2.23
2018-08-18T09:30:22.470Z,2.27
2018-08-18T09:32:51.041Z,2.00
2018-08-18T09:35:19.542Z,1.93
2018-08-18T09:37:53.373Z,1.90
2018-08-18T09:40:29.909Z,2.20
2018-08-18T09:42:58.427Z,2.27
2018-08-18T09:45:27.092Z,1.80
2018-08-18T09:47:55.530Z,1.90
2018-08-18T09:50:24.033Z,2.00
2018-08-18T09:52:52.547Z,1.97
2018-08-18T09:55:21.193Z,2.23
2018-08-18T09:57:49.734Z,2.13
2018-08-18T10:00:18.373Z,2.10
2018-08-18T10:02:46.925Z,2.10
2018-08-18T10:05:15.448Z,2.50
2018-08-18T10:07:43.929Z,2.20
2018-08-18T10:10:13.534Z,2.03
2018-08-18T10:12:42.050Z,2.27
2018-08-18T10:15:10.654Z,2.00
2018-08-18T10:17:39.155Z,2.20
2018-08-18T10:20:07.856Z,2.40
2018-08-18T10:22:36.381Z,1.80
2018-08-18T10:25:05.831Z,2.10
2018-08-18T10:27:34.295Z,2.00
2018-08-18T10:30:02.771Z,2.47
2018-08-18T10:32:31.368Z,2.23
2018-08-18T10:34:59.949Z,2.40
2018-08-18T10:37:28.399Z,2.17
2018-08-18T10:40:02.266Z,2.30
2018-08-18T10:42:31.854Z,2.23
2018-08-18T10:45:00.302Z,2.20
2018-08-18T10:47:29.129Z,2.20
2018-08-18T10:50:09.280Z,1.87
2018-08-18T10:52:49.167Z,2.20
2018-08-18T10:55:18.544Z,2.07
2018-08-18T10:57:58.796Z,2.40
2018-08-18T11:00:28.437Z,2.40
2018-08-18T11:03:01.186Z,2.10
2018-08-18T11:05:30.301Z,2.17
2018-08-18T11:08:04.468Z,2.07
2018-08-18T11:10:34.949Z,2.30
2018-08-18T11:13:03.741Z,2.27
2018-08-18T11:15:32.240Z,2.50
2018-08-18T11:18:00.829Z,2.43
2018-08-18T11:20:30.679Z,2.23
2018-08-18T11:23:04.658Z,2.40
2018-08-18T11:25:41.270Z,2.53
2018-08-18T11:28:10.872Z,2.23
2018-08-18T11:30:39.563Z,2.03
2018-08-18T11:33:08.172Z,2.40
2018-08-18T11:35:37.163Z,2.17
2018-08-18T11:38:13.860Z,2.20
2018-08-18T11:40:42.417Z,2.40
2018-08-18T11:43:13.862Z,2.10
2018-08-18T11:45:43.462Z,2.50
2018-08-18T11:48:22.468Z,2.40
2018-08-18T11:50:52.324Z,3.03
2018-08-18T11:53:20.930Z,2.70
2018-08-18T11:55:49.497Z,3.00
2018-08-18T11:58:19.400Z,2.73
2018-08-18T12:00:57.715Z,3.20
2018-08-18T12:03:29.802Z,2.70
2018-08-18T12:05:59.575Z,2.57
2018-08-18T12:08:30.250Z,2.70
2018-08-18T12:11:01.388Z,2.77
2018-08-18T12:13:35.210Z,2.80
2018-08-18T12:16:14.391Z,2.80
2018-08-18T12:18:44.225Z,2.73
2018-08-18T12:21:13.118Z,3.00
2018-08-18T12:23:47.050Z,2.97
2018-08-18T12:26:22.806Z,2.90
2018-08-18T12:28:52.964Z,3.50
2018-08-18T12:31:23.626Z,2.70
2018-08-18T12:33:52.153Z,3.10
2018-08-18T12:36:20.947Z,3.17
2018-08-18T12:38:51.617Z,2.43
2018-08-18T12:41:20.115Z,2.70
2018-08-18T12:43:50.579Z,2.57
2018-08-18T12:46:20.470Z,2.47
2018-08-18T12:48:50.405Z,2.70
2018-08-18T12:51:19.635Z,2.73
2018-08-18T12:53:49.694Z,2.80
2018-08-18T12:56:20.126Z,2.60
2018-08-18T12:58:48.725Z,2.20
2018-08-18T13:01:34.435Z,3.03
2018-08-18T13:04:03.037Z,2.50
2018-08-18T13:06:39.615Z,2.70
2018-08-18T13:09:09.784Z,2.57
2018-08-18T13:11:38.324Z,2.63
2018-08-18T13:14:06.854Z,3.37
2018-08-18T13:16:36.452Z,2.70
2018-08-18T13:19:05.561Z,2.73
2018-08-18T13:21:34.057Z,3.03
2018-08-18T13:24:03.339Z,3.03
2018-08-18T13:26:32.034Z,2.73
2018-08-18T13:29:00.437Z,2.90
2018-08-18T13:31:37.155Z,2.77
2018-08-18T13:34:06.385Z,2.70
2018-08-18T13:36:36.094Z,2.17
2018-08-18T13:39:07.600Z,2.77
2018-08-18T13:41:36.072Z,3.10
2018-08-18T13:44:04.558Z,2.63
2018-08-18T13:46:45.983Z,2.87
2018-08-18T13:49:14.534Z,2.50
2018-08-18T13:51:43.173Z,2.60
2018-08-18T13:54:11.665Z,2.40
2018-08-18T13:56:40.197Z,3.40
2018-08-18T13:59:08.752Z,2.93
2018-08-18T14:01:45.265Z,2.87
2018-08-18T14:04:21.286Z,3.00
2018-08-18T14:06:53.192Z,3.00
2018-08-18T14:09:21.754Z,2.47
2018-08-18T14:11:51.220Z,2.73
2018-08-18T14:14:19.709Z,2.43
2018-08-18T14:16:51.144Z,2.40
2018-08-18T14:19:21.514Z,2.90
2018-08-18T14:21:54.373Z,2.63
2018-08-18T14:24:27.116Z,2.80
2018-08-18T14:27:00.513Z,2.80
2018-08-18T14:29:30.692Z,2.90
2018-08-18T14:31:59.745Z,2.60
2018-08-18T14:34:28.443Z,3.03
2018-08-18T14:37:15.487Z,2.80
2018-08-18T14:39:44.041Z,2.80
2018-08-18T14:42:12.548Z,2.90
2018-08-18T14:44:41.064Z,2.57
2018-08-18T14:47:09.680Z,2.67
2018-08-18T14:49:38.250Z,2.63
2018-08-18T14:52:06.791Z,2.40
2018-08-18T14:54:35.406Z,2.60
2018-08-18T14:57:04.152Z,2.87
2018-08-18T14:59:35.748Z,3.10
2018-08-18T15:02:05.946Z,2.70
2018-08-18T15:04:35.399Z,2.90
2018-08-18T15:07:03.996Z,2.80
2018-08-18T15:09:43.099Z,3.13
2018-08-18T15:12:11.694Z,2.93
2018-08-18T15:14:40.293Z,2.73
2018-08-18T15:17:08.813Z,3.07
2018-08-18T15:19:37.288Z,2.90
2018-08-18T15:22:09.956Z,2.90
2018-08-18T15:24:38.696Z,2.83
2018-08-18T15:27:07.494Z,3.00
2018-08-18T15:29:35.985Z,2.73
2018-08-18T15:32:04.592Z,3.03
2018-08-18T15:34:33.242Z,2.90
2018-08-18T15:37:01.809Z,3.90
2018-08-18T15:39:30.529Z,3.53
2018-08-18T15:42:00.342Z,3.50
2018-08-18T15:44:28.919Z,3.67
2018-08-18T15:46:57.998Z,3.53
2018-08-18T15:49:26.716Z,3.30
2018-08-18T15:51:55.603Z,3.20
2018-08-18T15:54:24.793Z,3.43
2018-08-18T15:56:53.225Z,3.20
2018-08-18T15:59:21.693Z,2.90
2018-08-18T16:01:50.256Z,3.43
2018-08-18T16:04:18.734Z,3.00
2018-08-18T16:06:47.345Z,2.93
2018-08-18T16:09:15.977Z,3.27
2018-08-18T16:11:44.641Z,3.30
2018-08-18T16:14:13.123Z,3.50
2018-08-18T16:16:55.681Z,3.30
2018-08-18T16:19:24.958Z,3.50
2018-08-18T16:21:53.481Z,3.50
2018-08-18T16:24:30.356Z,3.13
2018-08-18T16:26:58.926Z,3.40
2018-08-18T16:29:27.523Z,3.60
2018-08-18T16:32:13.122Z,3.23
2018-08-18T16:34:42.694Z,3.37
2018-08-18T16:37:11.182Z,3.53
2018-08-18T16:39:40.279Z,3.43
2018-08-18T16:42:09.062Z,3.20
2018-08-18T16:44:37.648Z,3.10
2018-08-18T16:47:06.878Z,3.30
2018-08-18T16:49:35.354Z,2.93
2018-08-18T16:52:03.930Z,3.50
2018-08-18T16:54:33.176Z,3.07
2018-08-18T16:57:01.793Z,2.93
2018-08-18T16:59:30.538Z,3.10
2018-08-18T17:01:59.028Z,3.40
2018-08-18T17:04:30.952Z,3.63
2018-08-18T17:07:00.748Z,3.63
2018-08-18T17:09:35.657Z,3.77
2018-08-18T17:12:13.124Z,3.60
2018-08-18T17:14:41.886Z,3.40
2018-08-18T17:17:11.365Z,3.60
2018-08-18T17:19:40.376Z,3.90
2018-08-18T17:22:10.324Z,3.07
2018-08-18T17:24:39.658Z,3.17
2018-08-18T17:27:08.270Z,3.80
2018-08-18T17:29:39.302Z,3.27
2018-08-18T17:32:08.728Z,3.37
2018-08-18T17:34:37.286Z,3.40
2018-08-18T17:37:06.079Z,3.50
2018-08-18T17:39:34.594Z,3.63
2018-08-18T17:42:03.074Z,3.63
2018-08-18T17:44:31.747Z,3.70
2018-08-18T17:47:04.762Z,3.53
2018-08-18T17:50:13.463Z,3.97
2018-08-18T17:52:41.942Z,4.00
2018-08-18T17:55:17.665Z,3.97
2018-08-18T17:57:46.180Z,3.50
2018-08-18T18:00:19.195Z,4.23
2018-08-18T18:02:53.905Z,4.20
2018-08-18T18:05:23.787Z,3.80
2018-08-18T18:07:55.875Z,3.70
2018-08-18T18:10:26.593Z,4.33
2018-08-18T18:12:55.114Z,3.20
2018-08-18T18:15:42.674Z,3.90
2018-08-18T18:18:12.925Z,4.17
2018-08-18T18:20:43.117Z,3.67
2018-08-18T18:23:12.801Z,3.70
2018-08-18T18:25:41.694Z,3.53
2018-08-18T18:28:10.269Z,4.07
2018-08-18T18:30:38.748Z,4.17
2018-08-18T18:33:08.311Z,3.53
2018-08-18T18:35:36.873Z,4.23
2018-08-18T18:38:05.838Z,4.17
2018-08-18T18:40:36.149Z,4.03
2018-08-18T18:43:04.629Z,4.13
2018-08-18T18:45:33.209Z,4.47
2018-08-18T18:48:01.763Z,4.60
2018-08-18T18:50:30.367Z,4.90
2018-08-18T18:52:59.026Z,4.83
2018-08-18T18:55:27.687Z,5.30
2018-08-18T18:58:11.275Z,4.97
2018-08-18T19:00:44.394Z,5.40
2018-08-18T19:03:12.885Z,4.83
2018-08-18T19:05:41.387Z,4.73
2018-08-18T19:08:15.855Z,4.97
2018-08-18T19:10:44.435Z,4.10
2018-08-18T19:13:13.126Z,4.23
2018-08-18T19:15:41.656Z,4.90
2018-08-18T19:18:11.033Z,4.80
2018-08-18T19:20:39.513Z,5.17
2018-08-18T19:23:13.327Z,5.30
2018-08-18T19:32:30.556Z,5.30
2018-08-18T19:34:58.997Z,6.23
2018-08-18T19:37:27.550Z,5.27
2018-08-18T19:39:56.006Z,5.07
2018-08-18T19:42:24.466Z,5.67
2018-08-18T19:44:53.282Z,5.03
2018-08-18T19:47:25.959Z,5.63
2018-08-18T19:49:54.442Z,5.27
2018-08-18T19:52:23.840Z,5.50
2018-08-18T19:54:53.078Z,5.63
2018-08-18T19:57:27.292Z,5.43
2018-08-18T20:00:01.423Z,5.80
2018-08-18T20:02:47.883Z,6.20
2018-08-18T20:05:16.682Z,5.43
2018-08-18T20:07:45.134Z,5.87
2018-08-18T20:10:13.752Z,5.17
2018-08-18T20:12:42.633Z,6.00
2018-08-18T20:15:11.108Z,6.13
2018-08-18T20:17:39.930Z,5.83
2018-08-18T20:20:08.691Z,5.70
2018-08-18T20:22:37.134Z,6.40
2018-08-18T20:25:06.133Z,5.60
2018-08-18T20:27:34.602Z,5.60
2018-08-18T20:30:03.121Z,6.33
2018-08-18T20:32:33.291Z,5.90
2018-08-18T20:35:01.839Z,5.87
2018-08-18T20:37:30.284Z,5.73
2018-08-18T20:39:59.014Z,6.10
2018-08-18T20:42:32.970Z,5.53
2018-08-18T20:45:01.421Z,5.60
2018-08-18T20:47:31.319Z,6.10
2018-08-18T20:49:59.972Z,5.83
2018-08-18T20:52:29.400Z,6.77
2018-08-18T20:54:58.742Z,6.60
2018-08-18T20:57:27.398Z,5.73
2018-08-18T20:59:55.832Z,6.17
2018-08-18T21:02:24.286Z,5.73
2018-08-18T21:05:00.318Z,6.13
2018-08-18T21:07:30.420Z,6.30
2018-08-18T21:09:59.418Z,6.53
2018-08-18T21:12:36.338Z,5.93
2018-08-18T21:15:04.824Z,6.10
2018-08-18T21:17:33.270Z,5.63
2018-08-18T21:20:01.930Z,5.77
2018-08-18T21:22:31.765Z,5.47
2018-08-18T21:25:01.285Z,5.57
2018-08-18T21:27:29.782Z,5.40
2018-08-18T21:29:58.842Z,5.57
2018-08-18T21:32:28.150Z,5.97
2018-08-18T21:34:56.830Z,6.00
2018-08-18T21:37:25.278Z,5.57
2018-08-18T21:39:53.831Z,5.63
2018-08-18T21:42:22.305Z,6.00
2018-08-18T21:44:53.712Z,6.10
2018-08-18T21:47:22.255Z,5.50
2018-08-18T21:49:50.919Z,6.10
2018-08-18T21:52:19.598Z,5.60
2018-08-18T21:54:48.142Z,5.53
2018-08-18T21:57:16.755Z,5.80
2018-08-18T21:59:52.536Z,5.33
2018-08-18T22:02:33.621Z,5.80
2018-08-18T22:05:02.186Z,5.83
2018-08-18T22:07:44.319Z,5.50
2018-08-18T22:10:12.776Z,6.10
2018-08-18T22:12:41.638Z,5.83
2018-08-18T22:15:27.156Z,5.27
2018-08-18T22:17:55.672Z,5.50
2018-08-18T22:20:24.368Z,5.53
2018-08-18T22:22:52.968Z,5.63
2018-08-18T22:25:21.348Z,5.93
2018-08-18T22:27:53.623Z,5.73
2018-08-18T22:30:27.737Z,5.90
2018-08-18T22:32:56.194Z,5.63
2018-08-18T22:35:24.715Z,5.70
2018-08-18T22:37:53.319Z,5.60
2018-08-18T22:40:21.874Z,5.50
2018-08-18T22:42:50.420Z,5.83
2018-08-18T22:45:27.283Z,5.53
2018-08-18T22:47:55.917Z,5.63
2018-08-18T22:50:24.419Z,5.03
2018-08-18T22:52:54.029Z,5.73
2018-08-18T22:55:22.487Z,5.63
2018-08-18T22:57:55.048Z,5.67
2018-08-18T23:00:24.123Z,5.33
2018-08-18T23:02:52.879Z,5.43
2018-08-18T23:05:21.965Z,5.40
2018-08-18T23:07:52.666Z,5.77
2018-08-18T23:10:21.693Z,5.40
2018-08-18T23:12:50.250Z,5.63
2018-08-18T23:15:18.717Z,5.90
2018-08-18T23:17:47.213Z,5.27
2018-08-18T23:20:15.698Z,5.63
2018-08-18T23:22:52.735Z,5.80
2018-08-18T23:25:22.429Z,5.53
2018-08-18T23:27:51.203Z,5.50
2018-08-18T23:30:27.933Z,5.67
2018-08-18T23:32:56.445Z,6.70
2018-08-18T23:35:26.584Z,5.93
2018-08-18T23:37:55.470Z,5.77
2018-08-18T23:40:24.078Z,5.77
2018-08-18T23:42:52.636Z,6.30
2018-08-18T23:45:21.445Z,5.30
2018-08-18T23:47:56.228Z,5.67
2018-08-18T23:50:26.192Z,5.40
2018-08-18T23:52:58.640Z,5.53
2018-08-18T23:55:28.592Z,5.63
2018-08-18T23:57:57.472Z,5.90
